Airport Name : Jack Northrop Fld Hawthorne Muni

Other Name : Hawthorne

ICAO : KHHR

IATA : HHR

FAA : HHR

Latitude : 33.922839

Longitude : -118.335186

Country : United States

Local Date and Time : 04 Dec 2020 09:56

 

TAF (Terminal Aerodrome Forecast)

 

METAR (METeorological Aerodrome Report)

KHHR 041753Z 00000KT 10SM CLR 18/M10 A3023 RMK AO2 SLP235 T01831100 10183 20083 51004

KHHR 041653Z 00000KT 10SM CLR 15/M09 A3023 RMK AO2 SLP235 T01501094

KHHR 041553Z 00000KT 10SM CLR 12/M09 A3022 RMK AO2 SLP233 T01171089

KHHR 041453Z AUTO 00000KT 10SM CLR 09/M10 A3021 RMK AO2 SLP231 T00891100 53004

To Charter a Jet Click here.